Time;durP1;ratioP1;P1;durP2;ratioP2;P2;SDS_P1;SDS_P2;PMS_P1;PMS_P2;Temp;Humidity;BMP_temperature;BMP_pressure;BME280_temperature;BME280_humidity;BME280_pressure;Samples;Min_cycle;Max_cycle;Signal;HPM_P1;HPM_P2
2022/06/09 00:03:34;;;;;;;1.48;0.93;;;;;;;12.88;79.67;95860.78;10340449;28;98051;-69
2022/06/09 00:08:41;;;;;;;3.60;1.00;;;;;;;12.76;79.90;95861.34;10338073;28;96791;-70
2022/06/09 00:13:44;;;;;;;3.28;1.02;;;;;;;12.64;79.96;95874.00;10340832;28;96852;-69
2022/06/09 00:18:47;;;;;;;2.78;0.98;;;;;;;12.59;80.88;95886.78;10339771;28;96885;-68
2022/06/09 00:23:51;;;;;;;4.18;1.50;;;;;;;12.73;80.31;95888.69;10347535;28;98032;-68
2022/06/09 00:28:54;;;;;;;3.50;1.20;;;;;;;12.87;80.19;95884.53;10333894;28;96930;-68
2022/06/09 00:33:57;;;;;;;3.15;1.20;;;;;;;12.95;80.28;95887.16;10338957;28;100076;-67
2022/06/09 00:39:01;;;;;;;2.00;1.33;;;;;;;12.94;80.40;95895.19;10335389;28;96927;-67
2022/06/09 00:44:18;;;;;;;1.83;1.00;;;;;;;12.90;80.92;95899.13;10339988;28;97218;-67
2022/06/09 00:49:27;;;;;;;3.45;1.10;;;;;;;12.92;80.82;95897.19;10341093;28;96818;-67
2022/06/09 00:54:35;;;;;;;3.03;1.40;;;;;;;12.94;81.21;95895.19;10338125;28;96945;-68
2022/06/09 00:59:41;;;;;;;2.95;1.17;;;;;;;12.98;81.24;95897.31;10335143;28;97123;-68
2022/06/09 01:04:45;;;;;;;2.67;1.40;;;;;;;13.05;80.85;95882.53;10341509;28;96769;-67
2022/06/09 01:09:49;;;;;;;2.03;1.10;;;;;;;13.15;80.80;95876.25;10340716;28;97485;-67
2022/06/09 01:14:53;;;;;;;2.13;1.17;;;;;;;13.18;80.64;95875.91;10341224;28;97417;-67
2022/06/09 01:20:09;;;;;;;2.60;1.13;;;;;;;13.11;81.11;95886.25;10347828;28;97788;-69
2022/06/09 01:25:50;;;;;;;4.55;1.33;;;;;;;13.03;80.88;95894.16;10344808;28;97725;-67
2022/06/09 01:30:59;;;;;;;3.63;1.20;;;;;;;13.00;81.37;95899.78;10334899;28;97299;-67
2022/06/09 01:36:10;;;;;;;4.10;1.48;;;;;;;12.99;81.00;95892.88;10338576;28;96794;-67
2022/06/09 01:41:14;;;;;;;3.50;1.05;;;;;;;13.04;80.70;95885.31;10345188;28;96897;-67
2022/06/09 01:46:22;;;;;;;2.30;1.07;;;;;;;13.09;80.84;95897.94;10344292;28;96847;-68
2022/06/09 01:51:31;;;;;;;5.30;1.30;;;;;;;12.98;80.97;95920.91;10344290;28;100046;-67
2022/06/09 01:56:39;;;;;;;3.13;0.90;;;;;;;12.77;81.22;95925.88;10339767;28;96934;-67
2022/06/09 02:01:47;;;;;;;1.60;0.77;;;;;;;12.61;81.36;95926.75;10356220;28;96769;-67
2022/06/09 02:06:51;;;;;;;1.88;0.70;;;;;;;12.56;81.43;95924.63;10343920;28;100147;-67
2022/06/09 02:11:57;;;;;;;1.40;0.50;;;;;;;12.63;80.84;95909.03;10339621;28;96888;-67
2022/06/09 02:17:05;;;;;;;3.38;0.70;;;;;;;12.60;80.21;95899.72;10346000;28;96696;-67
2022/06/09 02:22:10;;;;;;;3.65;0.70;;;;;;;12.40;80.39;95911.56;10341860;28;97082;-67
2022/06/09 02:27:14;;;;;;;3.53;0.70;;;;;;;12.22;80.50;95906.53;10341315;28;96961;-67
2022/06/09 02:32:18;;;;;;;2.87;0.73;;;;;;;12.19;80.10;95897.19;10343422;28;96923;-67
2022/06/09 02:37:21;;;;;;;2.27;0.73;;;;;;;12.10;79.89;95912.09;10344718;28;96771;-67
2022/06/09 02:42:23;;;;;;;1.58;0.60;;;;;;;12.08;79.50;95916.69;10342163;28;97011;-67
2022/06/09 02:47:27;;;;;;;3.97;0.70;;;;;;;12.02;79.61;95911.28;10340393;28;96867;-68
2022/06/09 02:52:30;;;;;;;5.33;0.67;;;;;;;11.95;79.71;95907.69;10343180;28;96880;-67
2022/06/09 02:57:33;;;;;;;2.55;0.82;;;;;;;11.85;79.90;95913.06;10341479;28;96948;-68
2022/06/09 03:02:38;;;;;;;1.75;0.70;;;;;;;11.83;80.20;95913.28;10339942;28;96866;-67
2022/06/09 03:07:40;;;;;;;1.92;0.82;;;;;;;11.84;80.28;95920.13;10343751;28;96707;-67
2022/06/09 03:12:44;;;;;;;1.67;0.85;;;;;;;11.83;80.78;95928.13;10337966;28;96774;-67
2022/06/09 03:17:48;;;;;;;2.60;0.63;;;;;;;11.85;80.56;95902.59;10337409;28;96869;-67
2022/06/09 03:22:51;;;;;;;1.70;0.60;;;;;;;11.91;80.60;95920.28;10336855;28;96911;-67
2022/06/09 03:27:53;;;;;;;1.02;0.60;;;;;;;11.89;80.65;95924.88;10340566;28;96978;-67
2022/06/09 03:32:58;;;;;;;1.83;1.00;;;;;;;11.85;80.74;95934.00;10341752;28;99659;-67
2022/06/09 03:38:01;;;;;;;2.30;0.83;;;;;;;11.85;81.02;95931.41;10349257;28;96722;-68
2022/06/09 03:43:04;;;;;;;1.33;0.65;;;;;;;11.91;80.85;95946.47;10341982;28;96922;-68
2022/06/09 03:48:09;;;;;;;2.30;1.02;;;;;;;11.97;81.01;95961.53;10338433;28;99980;-67
2022/06/09 03:53:12;;;;;;;2.03;0.80;;;;;;;12.04;80.81;95967.75;10341308;28;96907;-67
2022/06/09 03:58:15;;;;;;;4.38;0.90;;;;;;;12.07;80.97;95970.03;10341402;28;96795;-67
2022/06/09 04:03:19;;;;;;;2.80;0.85;;;;;;;12.04;81.40;95965.13;10338854;28;96927;-67
2022/06/09 04:08:22;;;;;;;4.30;1.27;;;;;;;12.00;81.45;95974.28;10338884;28;96775;-67
2022/06/09 04:13:24;;;;;;;1.00;0.80;;;;;;;12.09;81.39;95975.09;10339500;28;97638;-67
2022/06/09 04:18:29;;;;;;;2.60;0.90;;;;;;;11.98;81.54;95978.06;10339381;28;96865;-68
2022/06/09 04:23:31;;;;;;;2.63;0.70;;;;;;;11.95;81.52;95973.13;10337549;28;99906;-67
2022/06/09 04:28:34;;;;;;;1.75;0.90;;;;;;;11.94;81.44;95972.31;10339484;28;97094;-67
2022/06/09 04:33:39;;;;;;;4.72;1.40;;;;;;;11.86;81.59;95988.00;10338887;28;97046;-67
2022/06/09 04:38:42;;;;;;;4.13;1.00;;;;;;;11.83;81.68;96001.41;10336558;28;96684;-67
2022/06/09 04:43:47;;;;;;;4.13;0.85;;;;;;;11.84;81.58;95998.63;10338844;28;96929;-71
2022/06/09 04:48:52;;;;;;;2.95;1.30;;;;;;;11.87;81.16;95997.50;10339455;28;96961;-68
2022/06/09 04:53:55;;;;;;;3.63;1.20;;;;;;;11.86;81.43;96006.34;10330322;28;96880;-71
2022/06/09 04:58:59;;;;;;;2.92;1.20;;;;;;;11.82;81.10;96010.25;10336685;28;96684;-67
2022/06/09 05:04:04;;;;;;;2.58;1.25;;;;;;;11.74;81.54;96019.75;10338696;28;96697;-67
2022/06/09 05:09:06;;;;;;;;;;;;;;;11.73;81.41;96032.97;10338406;28;96918;-67
2022/06/09 05:14:09;;;;;;;4.53;1.02;;;;;;;11.78;81.23;96048.19;10338707;28;96935;-68
2022/06/09 05:19:13;;;;;;;2.63;0.88;;;;;;;11.80;81.13;96059.31;10332831;28;97218;-68
2022/06/09 05:24:16;;;;;;;1.77;0.90;;;;;;;11.84;80.50;96058.03;10337209;28;96844;-67
2022/06/09 05:29:19;;;;;;;2.92;1.30;;;;;;;11.89;80.88;96058.38;10337345;28;96727;-67
2022/06/09 05:34:24;;;;;;;2.00;0.77;;;;;;;11.89;80.87;96059.19;10335449;28;96935;-67
2022/06/09 05:44:54;;;;;;;2.38;0.80;;;;;;;11.98;80.69;96073.09;10333935;28;97276;-67
2022/06/09 05:49:58;;;;;;;4.88;1.20;;;;;;;12.05;80.91;96079.34;10334734;28;96889;-67
2022/06/09 05:55:01;;;;;;;1.80;1.00;;;;;;;12.17;80.53;96076.41;10337034;28;96710;-68
2022/06/09 06:00:06;;;;;;;2.13;0.90;;;;;;;12.29;80.47;96090.84;10341374;28;96738;-67
2022/06/09 06:06:33;;;;;;;2.22;0.93;;;;;;;12.49;80.40;96076.44;10344397;28;96924;-68
2022/06/09 06:10:34;;;;;;;2.17;0.75;;;;;;;12.68;80.23;96079.69;10346250;28;96922;-68
2022/06/09 06:15:37;;;;;;;1.80;0.80;;;;;;;12.87;79.31;96095.13;10341414;28;97220;-67
2022/06/09 06:20:41;;;;;;;3.00;1.00;;;;;;;12.94;79.64;96099.72;10338887;28;97126;-67
2022/06/09 06:25:44;;;;;;;;;;;;;;;12.98;79.75;96098.41;10347901;28;102218;-67
2022/06/09 06:30:47;;;;;;;2.53;1.08;;;;;;;13.02;79.30;96091.84;10342852;28;97802;-67
2022/06/09 06:35:52;;;;;;;3.35;1.15;;;;;;;13.09;78.63;96092.00;10338636;28;97904;-69
2022/06/09 06:40:55;;;;;;;3.70;1.00;;;;;;;13.15;78.85;96094.78;10337487;28;96861;-67
2022/06/09 06:45:58;;;;;;;3.15;1.30;;;;;;;13.33;78.81;96105.03;10354923;28;96740;-67
2022/06/09 06:51:05;;;;;;;3.80;1.17;;;;;;;13.51;78.01;96115.31;10339068;28;96817;-68
2022/06/09 06:56:09;;;;;;;2.60;1.10;;;;;;;13.70;77.57;96126.41;10342073;28;98682;-68
2022/06/09 07:01:12;;;;;;;3.83;1.15;;;;;;;13.76;77.25;96131.81;10341188;28;97155;-67
2022/06/09 07:06:17;;;;;;;2.13;0.93;;;;;;;13.88;76.75;96123.53;10340829;28;96767;-68
2022/06/09 07:11:20;;;;;;;1.98;1.05;;;;;;;14.11;76.83;96140.19;10339985;28;99396;-67
2022/06/09 07:16:23;;;;;;;2.83;1.17;;;;;;;14.24;77.49;96133.56;10339391;28;97883;-68
2022/06/09 07:21:47;;;;;;;2.47;1.00;;;;;;;14.36;76.55;96138.25;10341882;28;100052;-68
2022/06/09 07:26:51;;;;;;;3.80;1.00;;;;;;;14.39;75.68;96137.09;10336797;28;96976;-69
2022/06/09 07:31:54;;;;;;;2.97;1.00;;;;;;;14.56;75.54;96143.09;10336177;28;96919;-67
2022/06/09 07:36:59;;;;;;;4.15;1.38;;;;;;;14.60;75.40;96138.28;10341532;28;97293;-67
2022/06/09 07:42:02;;;;;;;2.40;0.90;;;;;;;14.72;74.30;96144.78;10337474;28;96951;-67
2022/06/09 07:47:06;;;;;;;3.85;1.10;;;;;;;14.88;74.09;96131.47;10342069;28;96784;-67
2022/06/09 07:52:11;;;;;;;3.47;1.02;;;;;;;15.10;74.25;96139.53;10340096;28;97138;-70
2022/06/09 07:57:14;;;;;;;3.03;0.90;;;;;;;15.17;74.18;96144.91;10337940;28;97468;-67
2022/06/09 08:02:17;;;;;;;2.42;0.93;;;;;;;15.17;72.96;96150.16;10340320;28;96798;-67
2022/06/09 08:07:21;;;;;;;1.50;0.93;;;;;;;14.96;72.88;96148.19;10340640;28;96748;-67
2022/06/09 08:12:24;;;;;;;;;;;;;;;14.73;73.62;96149.84;10340197;28;97025;-68
2022/06/09 08:17:27;;;;;;;3.72;1.13;;;;;;;14.71;73.26;96151.00;10338444;28;96928;-67
2022/06/09 08:22:31;;;;;;;4.78;1.20;;;;;;;14.86;73.61;96149.25;10338491;28;96871;-68
2022/06/09 08:27:34;;;;;;;4.22;2.00;;;;;;;15.06;73.02;96139.06;10339708;28;97867;-68
2022/06/09 08:32:39;;;;;;;1.80;0.90;;;;;;;15.18;73.40;96143.88;10337797;28;96979;-68
2022/06/09 08:37:45;;;;;;;2.23;0.90;;;;;;;15.23;73.54;96152.06;10340579;28;96736;-68
2022/06/09 08:43:02;;;;;;;3.53;0.90;;;;;;;15.36;73.16;96160.16;10337012;28;96904;-68
2022/06/09 08:48:10;;;;;;;1.83;0.85;;;;;;;15.55;73.51;96155.34;10336625;28;96760;-67
2022/06/09 08:53:18;;;;;;;2.42;0.95;;;;;;;15.83;72.44;96161.66;10338477;28;97100;-67
2022/06/09 08:58:27;;;;;;;2.88;0.82;;;;;;;15.83;71.83;96160.88;10338791;28;98834;-67
2022/06/09 09:03:35;;;;;;;2.15;0.65;;;;;;;15.64;70.90;96180.66;10337835;28;96893;-68
2022/06/09 09:08:40;;;;;;;1.95;0.80;;;;;;;15.37;71.16;96203.91;10335088;28;96754;-68
2022/06/09 09:13:51;;;;;;;3.92;0.93;;;;;;;14.81;70.28;96214.72;10340586;28;97087;-67
2022/06/09 09:18:59;;;;;;;1.85;0.70;;;;;;;14.40;70.25;96228.09;10338858;28;97120;-67
2022/06/09 09:24:17;;;;;;;2.08;0.90;;;;;;;14.20;71.14;96225.03;10334914;28;96741;-67
2022/06/09 09:29:27;;;;;;;2.67;0.95;;;;;;;14.22;71.79;96230.94;10339374;28;96680;-67
2022/06/09 09:34:34;;;;;;;1.90;0.85;;;;;;;14.37;72.20;96237.13;10348935;28;102059;-67
2022/06/09 09:39:44;;;;;;;2.65;1.05;;;;;;;14.42;73.16;96246.31;10344479;28;97011;-67
2022/06/09 09:45:01;;;;;;;1.98;0.63;;;;;;;14.57;70.82;96252.47;10349659;28;97099;-67
2022/06/09 09:50:08;;;;;;;1.77;0.60;;;;;;;14.63;70.40;96251.81;10340855;28;96718;-67
2022/06/09 09:55:27;;;;;;;2.78;0.70;;;;;;;14.73;69.43;96252.41;10344168;28;97002;-71
2022/06/09 10:00:30;;;;;;;1.25;0.80;;;;;;;14.83;69.72;96269.78;10343749;28;97991;-67
2022/06/09 10:11:00;;;;;;;3.60;1.08;;;;;;;14.86;70.88;96270.25;10342362;28;96925;-67
2022/06/09 10:16:22;;;;;;;2.00;0.73;;;;;;;14.94;71.17;96269.38;10343471;28;96747;-67
2022/06/09 10:21:51;;;;;;;2.95;0.88;;;;;;;15.14;70.67;96282.88;10343316;28;98230;-67
2022/06/09 10:26:57;;;;;;;2.63;0.68;;;;;;;15.09;72.04;96286.03;10339468;28;96952;-67
2022/06/09 10:32:05;;;;;;;3.35;1.00;;;;;;;15.16;71.39;96287.97;10345753;28;96721;-67
2022/06/09 10:37:18;;;;;;;4.03;0.98;;;;;;;15.20;70.74;96281.34;10340404;28;97012;-67
2022/06/09 10:42:32;;;;;;;2.50;0.80;;;;;;;15.25;71.47;96286.91;10335596;28;96752;-67
2022/06/09 10:58:30;;;;;;;3.85;0.88;;;;;;;16.37;63.67;96271.22;10337061;28;96866;-68
2022/06/09 11:03:45;;;;;;;2.03;0.85;;;;;;;16.37;59.79;96267.78;10330062;28;97002;-69
2022/06/09 11:09:00;;;;;;;2.40;0.80;;;;;;;16.48;61.16;96259.38;10335513;28;96884;-67
2022/06/09 11:14:15;;;;;;;2.47;0.80;;;;;;;16.58;62.57;96273.09;10336362;28;97388;-67
2022/06/09 11:19:39;;;;;;;3.08;1.48;;;;;;;16.74;64.89;96273.91;10338862;28;96745;-67
2022/06/09 11:24:54;;;;;;;3.65;1.60;;;;;;;16.74;64.78;96263.34;10343198;28;96738;-68
2022/06/09 11:30:12;;;;;;;2.58;1.50;;;;;;;16.96;65.45;96262.41;10337412;28;96709;-67
2022/06/09 11:35:22;;;;;;;5.95;1.45;;;;;;;17.21;65.35;96264.69;10340567;28;96950;-69
2022/06/09 11:40:35;;;;;;;3.72;1.42;;;;;;;17.38;63.65;96266.06;10341781;28;97018;-68
2022/06/09 11:45:47;;;;;;;2.80;1.33;;;;;;;17.21;63.59;96263.88;10340116;28;97019;-68
2022/06/09 11:50:51;;;;;;;4.50;1.25;;;;;;;17.11;62.46;96269.44;10336164;28;96987;-67
2022/06/09 11:56:36;;;;;;;3.88;1.20;;;;;;;17.05;62.81;96275.50;10334360;28;96881;-67
2022/06/09 12:02:20;;;;;;;4.88;0.90;;;;;;;17.15;60.76;96260.97;10341923;28;96773;-68
2022/06/09 12:07:43;;;;;;;2.63;1.05;;;;;;;17.52;62.42;96266.16;10341442;28;96823;-67
2022/06/09 12:13:06;;;;;;;4.85;1.05;;;;;;;18.08;58.99;96260.94;10341106;28;96954;-68
2022/06/09 12:18:29;;;;;;;2.78;1.05;;;;;;;18.55;57.03;96263.81;10333724;28;97942;-68
2022/06/09 12:23:36;;;;;;;3.95;0.90;;;;;;;18.69;55.94;96252.25;10329220;28;96936;-67
2022/06/09 12:28:59;;;;;;;4.07;0.93;;;;;;;18.76;53.84;96262.88;10340831;28;96883;-69
2022/06/09 12:34:05;;;;;;;2.88;1.00;;;;;;;18.75;54.37;96258.56;10339109;28;96721;-67
2022/06/09 12:39:22;;;;;;;4.25;0.93;;;;;;;18.77;55.78;96256.53;10336934;28;99891;-68
2022/06/09 12:44:30;;;;;;;6.00;0.80;;;;;;;18.66;55.92;96257.94;10321260;28;96794;-68
2022/06/09 12:49:37;;;;;;;2.83;1.05;;;;;;;18.85;54.16;96252.91;10341861;28;99661;-72
2022/06/09 12:54:41;;;;;;;5.03;1.20;;;;;;;19.28;51.54;96251.78;10332829;28;97213;-68
2022/06/09 12:59:45;;;;;;;3.60;0.85;;;;;;;19.32;50.61;96248.56;10335262;28;97963;-68
2022/06/09 13:04:52;;;;;;;3.42;0.95;;;;;;;19.46;52.49;96256.50;10342152;28;97358;-67
2022/06/09 13:10:08;;;;;;;5.20;1.38;;;;;;;19.40;50.18;96261.59;10345815;28;96981;-68
2022/06/09 13:15:25;;;;;;;2.95;0.90;;;;;;;19.60;49.49;96266.91;10344021;28;99989;-69
2022/06/09 13:20:32;;;;;;;2.40;1.00;;;;;;;19.91;49.75;96248.78;10328223;28;97021;-67
2022/06/09 13:25:35;;;;;;;4.22;0.70;;;;;;;20.14;47.38;96264.22;10346502;28;97621;-67
2022/06/09 13:30:49;;;;;;;2.15;0.90;;;;;;;19.74;48.63;96285.47;10345281;28;97440;-68
2022/06/09 13:35:53;;;;;;;3.03;0.80;;;;;;;19.10;49.39;96289.47;10340171;28;96949;-70
2022/06/09 13:40:59;;;;;;;1.90;0.80;;;;;;;18.43;48.86;96286.50;10340713;28;96858;-68
2022/06/09 13:46:13;;;;;;;3.78;0.88;;;;;;;18.39;48.33;96309.91;10345036;28;97072;-67
2022/06/09 13:51:24;;;;;;;3.88;0.80;;;;;;;18.22;47.93;96308.56;10343160;28;96939;-68
2022/06/09 13:56:27;;;;;;;2.88;0.90;;;;;;;18.41;49.64;96307.06;10326103;28;98140;-68
2022/06/09 14:01:32;;;;;;;3.75;1.00;;;;;;;18.38;47.20;96303.00;10344535;28;97641;-68
2022/06/09 14:06:35;;;;;;;3.08;1.05;;;;;;;18.36;47.24;96318.25;10342224;28;96964;-68
2022/06/09 14:11:37;;;;;;;4.47;1.10;;;;;;;18.23;46.71;96310.22;10341572;28;96783;-68
2022/06/09 14:17:02;;;;;;;2.67;0.75;;;;;;;18.16;48.44;96325.22;10338998;28;97079;-68
2022/06/09 14:22:05;;;;;;;4.90;1.20;;;;;;;18.26;49.29;96315.13;10339875;28;96761;-67
2022/06/09 14:27:08;;;;;;;2.45;0.98;;;;;;;18.18;47.18;96313.44;10340991;28;96850;-67
2022/06/09 14:32:16;;;;;;;3.85;1.35;;;;;;;18.36;47.42;96302.38;10344435;28;102146;-68
2022/06/09 14:37:22;;;;;;;4.55;0.82;;;;;;;18.50;46.92;96306.72;10341274;28;96838;-67
2022/06/09 14:42:25;;;;;;;3.97;0.90;;;;;;;18.87;45.18;96307.31;10342175;28;97687;-68
2022/06/09 14:47:29;;;;;;;4.18;0.90;;;;;;;20.00;45.56;96322.59;10325314;28;96907;-70
2022/06/09 14:52:32;;;;;;;3.38;0.93;;;;;;;21.68;41.66;96330.78;10340025;28;96957;-68
2022/06/09 14:57:35;;;;;;;5.03;1.10;;;;;;;21.38;42.24;96323.41;10341996;28;96952;-68
2022/06/09 15:02:40;;;;;;;4.78;1.10;;;;;;;20.82;41.84;96332.03;10339515;28;99856;-68
2022/06/09 15:07:44;;;;;;;2.80;0.80;;;;;;;21.75;39.72;96334.22;10344383;28;97250;-68
2022/06/09 15:12:47;;;;;;;;;;;;;;;21.31;40.57;96325.25;10342206;28;98916;-68
2022/06/09 15:17:52;;;;;;;4.68;0.88;;;;;;;21.20;40.31;96325.94;10339333;28;97619;-68
2022/06/09 15:22:56;;;;;;;3.72;0.90;;;;;;;22.67;38.89;96324.81;10336766;28;96959;-68
2022/06/09 15:27:59;;;;;;;3.40;1.00;;;;;;;24.05;36.93;96327.63;10341144;28;97048;-68
2022/06/09 15:33:04;;;;;;;2.03;0.83;;;;;;;24.36;36.27;96326.50;10339650;28;97483;-68
2022/06/09 15:38:08;;;;;;;2.80;1.17;;;;;;;25.23;34.50;96325.66;10342003;28;97390;-68
2022/06/09 15:43:13;;;;;;;4.75;0.80;;;;;;;25.60;33.44;96317.25;10341483;28;97328;-68
2022/06/09 15:48:20;;;;;;;3.60;1.00;;;;;;;25.09;32.95;96318.97;10339506;28;97029;-69
2022/06/09 15:53:24;;;;;;;2.42;0.90;;;;;;;25.31;32.86;96323.66;10339062;28;96814;-69
2022/06/09 15:58:27;;;;;;;2.42;0.80;;;;;;;26.73;32.26;96331.56;10341702;28;97374;-68
2022/06/09 16:03:31;;;;;;;1.98;0.85;;;;;;;26.35;33.23;96328.63;10340391;28;96904;-68
2022/06/09 16:08:35;;;;;;;2.38;0.80;;;;;;;24.68;34.95;96337.63;10337398;28;97042;-69
2022/06/09 16:13:38;;;;;;;4.83;1.40;;;;;;;22.76;36.10;96350.09;10342153;28;99238;-68
2022/06/09 16:18:42;;;;;;;3.95;1.00;;;;;;;21.54;36.38;96355.81;10338856;28;96797;-69
2022/06/09 16:23:46;;;;;;;2.58;1.10;;;;;;;22.39;36.03;96360.69;10330832;28;96871;-68
2022/06/09 16:28:49;;;;;;;3.72;1.13;;;;;;;22.36;35.15;96369.13;10341779;28;98510;-68
2022/06/09 16:33:53;;;;;;;3.05;1.00;;;;;;;21.74;36.46;96375.13;10339129;28;96889;-69
2022/06/09 16:38:56;;;;;;;3.65;1.02;;;;;;;22.97;35.34;96373.63;10333578;28;96972;-68
2022/06/09 16:43:59;;;;;;;;;;;;;;;24.93;34.14;96373.16;10342003;28;96736;-68
2022/06/09 16:49:03;;;;;;;2.80;0.88;;;;;;;25.71;32.40;96357.56;10339413;28;96830;-68
2022/06/09 16:54:07;;;;;;;2.25;0.70;;;;;;;26.53;32.42;96383.78;10332149;28;97546;-68
2022/06/09 16:59:10;;;;;;;3.53;1.40;;;;;;;27.72;31.37;96375.38;10340087;28;96897;-69
2022/06/09 17:04:14;;;;;;;2.58;0.80;;;;;;;28.84;30.03;96384.56;10339014;28;96939;-69
2022/06/09 17:09:17;;;;;;;2.42;0.88;;;;;;;28.90;30.15;96389.72;10338873;28;96722;-69
2022/06/09 17:14:21;;;;;;;;;;;;;;;28.95;31.63;96387.09;10338644;28;96726;-69
2022/06/09 17:19:27;;;;;;;3.78;1.08;;;;;;;29.12;30.33;96386.91;10337004;28;96785;-69
2022/06/09 17:24:30;;;;;;;2.58;0.90;;;;;;;29.09;29.03;96387.44;10337704;28;99858;-69
2022/06/09 17:29:40;;;;;;;3.50;1.10;;;;;;;29.36;28.06;96384.56;10335439;28;96796;-69
2022/06/09 17:34:44;;;;;;;3.15;0.98;;;;;;;28.63;28.13;96389.03;10340030;28;96831;-69
2022/06/09 17:39:47;;;;;;;3.42;1.00;;;;;;;27.66;28.09;96393.31;10333231;28;101715;-69
2022/06/09 17:44:50;;;;;;;3.08;0.98;;;;;;;27.79;30.02;96397.47;10334215;28;96907;-68
2022/06/09 17:49:54;;;;;;;2.92;0.90;;;;;;;27.90;28.50;96393.00;10333774;28;96941;-69
2022/06/09 17:54:59;;;;;;;3.50;1.00;;;;;;;27.82;29.64;96410.38;10340836;28;97359;-68
2022/06/09 18:00:02;;;;;;;2.22;0.82;;;;;;;26.83;29.83;96405.91;10341148;28;96781;-68
2022/06/09 18:05:07;;;;;;;;;;;;;;;25.13;31.99;96412.84;10346097;28;97520;-69
2022/06/09 18:10:14;;;;;;;5.70;1.17;;;;;;;24.26;32.57;96415.19;10345994;28;98885;-69
2022/06/09 18:15:17;;;;;;;4.50;1.00;;;;;;;22.65;34.50;96417.41;10348817;28;96991;-68
2022/06/09 18:20:22;;;;;;;4.22;1.35;;;;;;;21.35;35.93;96413.38;10338826;28;98017;-68
2022/06/09 18:25:27;;;;;;;4.60;1.00;;;;;;;20.24;37.42;96429.09;10337692;28;96862;-68
2022/06/09 18:30:33;;;;;;;3.45;0.80;;;;;;;19.78;38.47;96427.16;10337497;28;99834;-68
2022/06/09 18:35:42;;;;;;;5.50;1.35;;;;;;;19.45;39.99;96435.84;10336048;28;96843;-69
2022/06/09 18:40:53;;;;;;;4.82;1.30;;;;;;;18.97;39.92;96452.53;10343467;28;98237;-68
2022/06/09 18:45:57;;;;;;;6.97;1.20;;;;;;;18.18;40.38;96450.13;10344461;28;97692;-68
2022/06/09 18:51:03;;;;;;;7.05;4.28;;;;;;;17.56;41.43;96452.31;10340136;28;96697;-71
2022/06/09 18:56:07;;;;;;;13.23;8.43;;;;;;;17.15;41.99;96453.66;10341019;28;96846;-68
2022/06/09 19:01:10;;;;;;;4.60;1.30;;;;;;;16.88;41.78;96470.16;10338659;28;96990;-68
2022/06/09 19:06:17;;;;;;;4.43;1.10;;;;;;;16.70;42.63;96494.22;10340212;28;97130;-68
2022/06/09 19:11:21;;;;;;;3.75;1.02;;;;;;;16.54;42.81;96500.47;10339838;28;96794;-68
2022/06/09 19:16:25;;;;;;;3.47;1.20;;;;;;;16.35;43.14;96501.78;10343038;28;96905;-68
2022/06/09 19:21:30;;;;;;;5.55;1.35;;;;;;;16.20;43.85;96504.38;10336508;28;96911;-71
2022/06/09 19:26:34;;;;;;;15.60;11.30;;;;;;;16.07;43.54;96504.97;10340809;28;97046;-67
2022/06/09 19:31:37;;;;;;;5.93;2.93;;;;;;;15.96;44.72;96508.00;10337476;28;98163;-68
2022/06/09 19:36:42;;;;;;;5.28;0.93;;;;;;;15.75;45.08;96506.78;10341335;28;96828;-68
2022/06/09 19:41:45;;;;;;;5.15;1.23;;;;;;;15.56;45.35;96502.75;10334929;28;97259;-67
2022/06/09 19:46:49;;;;;;;3.65;1.00;;;;;;;15.35;45.51;96507.78;10341756;28;99773;-68
2022/06/09 19:51:54;;;;;;;6.82;1.30;;;;;;;15.18;45.60;96517.56;10339000;28;97000;-69
2022/06/09 19:56:57;;;;;;;4.20;1.15;;;;;;;15.07;45.89;96519.56;10324396;28;97124;-67
2022/06/09 20:02:00;;;;;;;3.42;1.13;;;;;;;14.90;47.16;96531.09;10344186;28;96816;-68
2022/06/09 20:07:04;;;;;;;4.30;1.27;;;;;;;14.70;47.56;96523.59;10337872;28;98148;-69
2022/06/09 20:12:09;;;;;;;4.20;1.17;;;;;;;14.56;47.57;96526.91;10337897;28;97628;-67
2022/06/09 20:17:15;;;;;;;5.43;1.60;;;;;;;14.44;47.66;96522.97;10339441;28;98096;-70
2022/06/09 20:22:20;;;;;;;4.15;1.10;;;;;;;14.35;48.29;96540.53;10338603;28;96857;-67
2022/06/09 20:27:25;;;;;;;4.68;1.10;;;;;;;14.28;49.46;96542.13;10339159;28;96763;-67
2022/06/09 20:32:28;;;;;;;6.25;1.38;;;;;;;14.15;50.04;96555.75;10321962;28;96856;-69
2022/06/09 20:37:32;;;;;;;6.05;1.52;;;;;;;14.04;49.57;96550.78;10339958;28;96826;-68
2022/06/09 20:42:35;;;;;;;4.00;1.27;;;;;;;13.91;51.05;96552.09;10337843;28;96979;-68
2022/06/09 20:47:42;;;;;;;3.63;1.10;;;;;;;13.70;51.23;96557.78;10336665;28;96823;-68
2022/06/09 20:52:47;;;;;;;6.35;1.27;;;;;;;13.56;52.15;96555.78;10340191;28;98089;-68
2022/06/09 20:57:50;;;;;;;5.30;1.20;;;;;;;13.39;52.62;96563.59;10338099;28;97314;-67
2022/06/09 21:02:53;;;;;;;5.88;1.00;;;;;;;13.23;52.29;96560.88;10335091;28;97381;-68
2022/06/09 21:07:58;;;;;;;5.30;1.17;;;;;;;13.12;53.37;96555.91;10332689;28;97010;-70
2022/06/09 21:18:30;;;;;;;5.05;1.25;;;;;;;13.01;53.54;96551.72;10334347;28;97145;-68
2022/06/09 21:23:35;;;;;;;3.85;1.30;;;;;;;12.95;53.63;96565.47;10311710;28;99891;-69
2022/06/09 21:28:38;;;;;;;3.30;1.10;;;;;;;12.79;54.40;96566.97;10344207;28;97320;-68
2022/06/09 21:33:40;;;;;;;4.63;1.13;;;;;;;12.68;54.67;96572.47;10336116;28;98114;-68
2022/06/09 21:38:45;;;;;;;6.35;1.40;;;;;;;12.64;54.90;96573.75;10341015;28;97050;-67
2022/06/09 21:43:47;;;;;;;4.77;1.03;;;;;;;12.56;55.50;96584.16;10338363;28;96868;-68
2022/06/09 21:48:52;;;;;;;4.57;1.30;;;;;;;12.40;55.72;96574.38;10331830;28;96888;-68
2022/06/09 21:53:56;;;;;;;2.97;1.05;;;;;;;12.27;56.57;96575.56;10336809;28;96962;-69
2022/06/09 21:58:59;;;;;;;4.77;1.20;;;;;;;12.14;56.71;96574.31;10338237;28;97412;-67
2022/06/09 22:04:02;;;;;;;4.30;1.20;;;;;;;12.04;57.31;96582.22;10339559;28;96874;-68
2022/06/09 22:09:07;;;;;;;5.10;1.30;;;;;;;11.88;57.89;96575.88;10338685;28;98089;-67
2022/06/09 22:14:10;;;;;;;8.50;1.60;;;;;;;11.81;58.54;96581.81;10337042;28;96830;-67
2022/06/09 22:19:13;;;;;;;2.78;1.13;;;;;;;11.69;58.77;96575.97;10338661;28;97008;-68
2022/06/09 22:24:17;;;;;;;4.55;1.30;;;;;;;11.68;59.28;96580.38;10334802;28;96979;-68
2022/06/09 22:29:23;;;;;;;5.83;1.40;;;;;;;11.67;59.08;96583.94;10338183;28;96804;-67
2022/06/09 22:34:26;;;;;;;3.33;1.30;;;;;;;11.72;59.07;96581.72;10332305;28;97307;-67
2022/06/09 22:39:30;;;;;;;5.70;1.85;;;;;;;11.69;59.46;96589.03;10333373;28;96998;-68
2022/06/09 22:44:33;;;;;;;4.47;1.20;;;;;;;11.66;59.11;96586.72;10340340;28;97041;-67
2022/06/09 22:49:36;;;;;;;7.20;1.70;;;;;;;11.42;60.52;96582.03;10332763;28;96925;-68
2022/06/09 22:54:41;;;;;;;8.00;2.05;;;;;;;11.22;60.98;96587.28;10330182;28;96755;-67
2022/06/09 22:59:44;;;;;;;1.83;1.17;;;;;;;11.03;61.53;96584.75;10331445;28;98372;-68
2022/06/09 23:04:46;;;;;;;5.32;1.90;;;;;;;10.91;62.34;96590.16;10331972;28;96779;-68
2022/06/09 23:09:51;;;;;;;3.55;1.45;;;;;;;10.87;62.86;96594.00;10328913;28;97409;-67
2022/06/09 23:14:53;;;;;;;4.88;1.63;;;;;;;10.87;62.30;96596.59;10331323;28;97073;-67
2022/06/09 23:19:56;;;;;;;6.03;1.70;;;;;;;10.61;62.98;96591.97;10330760;28;98586;-67
2022/06/09 23:25:00;;;;;;;5.80;1.58;;;;;;;10.49;63.78;96593.06;10332822;28;96792;-67
2022/06/09 23:30:04;;;;;;;6.78;1.55;;;;;;;10.43;63.66;96601.47;10334362;28;96869;-67
2022/06/09 23:35:07;;;;;;;4.65;1.60;;;;;;;10.31;64.15;96600.78;10339501;28;96807;-67
2022/06/09 23:40:22;;;;;;;4.78;1.40;;;;;;;10.42;63.39;96607.66;10339991;28;96766;-67
2022/06/09 23:45:35;;;;;;;4.93;1.20;;;;;;;10.35;63.71;96603.94;10340924;28;96855;-68
2022/06/09 23:50:41;;;;;;;5.38;1.20;;;;;;;10.36;64.34;96590.75;10323524;28;96880;-68
2022/06/09 23:55:45;;;;;;;4.40;1.42;;;;;;;10.16;64.26;96602.97;10341793;28;97012;-67
